Time;durP1;ratioP1;P1;durP2;ratioP2;P2;SDS_P1;SDS_P2;PMS_P1;PMS_P2;Temp;Humidity;BMP_temperature;BMP_pressure;BME280_temperature;BME280_humidity;BME280_pressure;Samples;Min_cycle;Max_cycle;Signal;HPM_P1;HPM_P2
2023/01/29 00:00:34;;;;;;;;;103.67;95.67;;;;;;;;5029404;28;45211;-81
2023/01/29 00:02:59;;;;;;;;;81.67;62.67;;;;;;;;5000912;28;45233;-81
2023/01/29 00:05:25;;;;;;;;;81.67;59.00;;;;;;;;5030732;28;45237;-81
2023/01/29 00:07:50;;;;;;;;;77.67;58.33;;;;;;;;5013920;28;46748;-82
2023/01/29 00:10:15;;;;;;;;;70.33;59.00;;;;;;;;5031752;27;45593;-81
2023/01/29 00:12:40;;;;;;;;;77.00;59.00;;;;;;;;5014948;27;45441;-81
2023/01/29 00:15:06;;;;;;;;;76.67;59.00;;;;;;;;5026700;28;45354;-81
2023/01/29 00:17:31;;;;;;;;;81.67;63.00;;;;;;;;5011715;28;46198;-82
2023/01/29 00:19:56;;;;;;;;;81.33;62.33;;;;;;;;5020637;27;45291;-81
2023/01/29 00:22:22;;;;;;;;;90.00;69.67;;;;;;;;5000859;28;45736;-81
2023/01/29 00:24:47;;;;;;;;;90.67;68.67;;;;;;;;5021395;27;45437;-82
2023/01/29 00:27:12;;;;;;;;;83.00;65.67;;;;;;;;5024339;28;45445;-81
2023/01/29 00:29:37;;;;;;;;;87.00;67.67;;;;;;;;5018922;27;45386;-81
2023/01/29 00:32:03;;;;;;;;;89.33;66.00;;;;;;;;5027271;28;45353;-81
2023/01/29 00:34:28;;;;;;;;;96.75;81.50;;;;;;;;5026770;28;45437;-82
2023/01/29 00:37:05;;;;;;;;;99.00;78.67;;;;;;;;5013991;28;47886;-81
2023/01/29 00:39:37;;;;;;;;;86.67;63.00;;;;;;;;5022970;27;45467;-82
2023/01/29 00:44:56;;;;;;;;;87.67;65.00;;;;;;;;5024914;28;45260;-82
2023/01/29 00:47:34;;;;;;;;;78.67;62.67;;;;;;;;5018333;28;45237;-82
2023/01/29 00:50:00;;;;;;;;;82.00;63.67;;;;;;;;5018299;28;45338;-82
2023/01/29 00:52:25;;;;;;;;;93.75;70.25;;;;;;;;5021574;28;45366;-82
2023/01/29 00:54:51;;;;;;;;;92.33;69.67;;;;;;;;5023549;28;45473;-81
2023/01/29 00:57:16;;;;;;;;;82.00;64.33;;;;;;;;5016701;28;46044;-82
2023/01/29 00:59:41;;;;;;;;;85.00;61.00;;;;;;;;5023562;27;45250;-82
2023/01/29 01:04:51;;;;;;;;;77.33;62.00;;;;;;;;5032413;28;45402;-81
2023/01/29 01:07:16;;;;;;;;;82.33;60.67;;;;;;;;5012050;28;46064;-81
2023/01/29 01:12:25;;;;;;;;;87.00;65.67;;;;;;;;5013300;27;45406;-81
2023/01/29 01:14:50;;;;;;;;;94.00;69.67;;;;;;;;5018092;28;45506;-82
2023/01/29 01:17:15;;;;;;;;;105.00;80.50;;;;;;;;5015810;28;45250;-82
2023/01/29 01:19:41;;;;;;;;;88.33;67.33;;;;;;;;5024803;27;45259;-82
2023/01/29 01:22:07;;;;;;;;;69.67;57.00;;;;;;;;5017137;28;45235;-82
2023/01/29 01:24:32;;;;;;;;;77.00;62.67;;;;;;;;5017454;28;45332;-82
2023/01/29 01:26:57;;;;;;;;;70.67;56.00;;;;;;;;4999819;28;45201;-82
2023/01/29 01:29:23;;;;;;;;;75.67;59.33;;;;;;;;5022067;27;45258;-82
2023/01/29 01:31:48;;;;;;;;;66.67;53.33;;;;;;;;5015044;28;45177;-82
2023/01/29 01:34:14;;;;;;;;;70.00;52.00;;;;;;;;5019385;28;46146;-82
2023/01/29 01:36:39;;;;;;;;;74.33;52.67;;;;;;;;5018157;28;46789;-82
2023/01/29 01:39:04;;;;;;;;;76.00;55.00;;;;;;;;5017445;28;45211;-82
2023/01/29 01:41:30;;;;;;;;;67.67;52.33;;;;;;;;5018386;28;45495;-82
2023/01/29 01:43:56;;;;;;;;;83.67;63.00;;;;;;;;5000839;28;45759;-82
2023/01/29 01:46:23;;;;;;;;;72.33;57.33;;;;;;;;5000977;28;46756;-82
2023/01/29 01:48:54;;;;;;;;;71.67;55.00;;;;;;;;5013178;28;45290;-82
2023/01/29 01:51:20;;;;;;;;;71.33;57.00;;;;;;;;5014937;27;45371;-82
2023/01/29 01:53:51;;;;;;;;;76.67;55.00;;;;;;;;5029036;27;45512;-82
2023/01/29 01:56:20;;;;;;;;;73.67;54.00;;;;;;;;5008250;27;47433;-81
2023/01/29 01:58:56;;;;;;;;;70.67;54.00;;;;;;;;5015021;28;45337;-82
2023/01/29 02:01:26;;;;;;;;;67.67;54.33;;;;;;;;5017119;28;45461;-82
2023/01/29 02:09:35;;;;;;;;;65.67;51.00;;;;;;;;5014286;28;45311;-82
2023/01/29 02:12:05;;;;;;;;;72.00;52.67;;;;;;;;4999117;27;45448;-82
2023/01/29 02:14:30;;;;;;;;;68.67;53.00;;;;;;;;5016814;28;45478;-82
2023/01/29 02:16:56;;;;;;;;;71.00;55.67;;;;;;;;5010417;28;45230;-81
2023/01/29 02:19:21;;;;;;;;;73.67;59.33;;;;;;;;5025996;27;45329;-82
2023/01/29 02:21:51;;;;;;;;;69.00;55.00;;;;;;;;5021262;28;45360;-82
2023/01/29 02:24:39;;;;;;;;;67.67;49.67;;;;;;;;5022729;28;45290;-82
2023/01/29 02:27:04;;;;;;;;;72.00;56.67;;;;;;;;5018817;28;45407;-83
2023/01/29 02:29:34;;;;;;;;;64.33;49.33;;;;;;;;5020444;28;45424;-82
2023/01/29 02:32:02;;;;;;;;;71.33;54.33;;;;;;;;5013105;28;45413;-82
2023/01/29 02:37:37;;;;;;;;;72.67;56.33;;;;;;;;5020891;28;45267;-82
2023/01/29 02:40:03;;;;;;;;;69.67;54.00;;;;;;;;5022389;28;45272;-82
2023/01/29 02:42:48;;;;;;;;;77.33;57.00;;;;;;;;5021307;28;45222;-82
2023/01/29 02:45:32;;;;;;;;;67.00;53.33;;;;;;;;5016554;28;45389;-81
2023/01/29 02:47:59;;;;;;;;;73.67;54.33;;;;;;;;5021991;28;45547;-81
2023/01/29 02:50:24;;;;;;;;;73.67;56.67;;;;;;;;5019505;28;45503;-80
2023/01/29 02:53:00;;;;;;;;;77.67;55.33;;;;;;;;5014220;28;45413;-81
2023/01/29 02:55:34;;;;;;;;;76.00;57.33;;;;;;;;5014773;28;45241;-80
2023/01/29 02:58:06;;;;;;;;;77.00;58.67;;;;;;;;5016173;28;45287;-80
2023/01/29 03:00:35;;;;;;;;;68.67;54.33;;;;;;;;5010047;28;45307;-79
2023/01/29 03:03:10;;;;;;;;;79.67;58.33;;;;;;;;5013196;28;45429;-79
2023/01/29 03:05:43;;;;;;;;;74.00;57.67;;;;;;;;5018920;28;45222;-80
2023/01/29 03:08:10;;;;;;;;;74.00;56.67;;;;;;;;4997352;28;48097;-81
2023/01/29 03:10:43;;;;;;;;;73.33;54.33;;;;;;;;5016556;28;45364;-80
2023/01/29 03:13:25;;;;;;;;;75.00;58.33;;;;;;;;5019324;27;45463;-80
2023/01/29 03:16:13;;;;;;;;;73.00;57.00;;;;;;;;5018619;28;45484;-79
2023/01/29 03:18:44;;;;;;;;;78.67;58.33;;;;;;;;5025763;28;45416;-79
2023/01/29 03:32:13;;;;;;;;;77.33;57.00;;;;;;;;5016480;28;45332;-78
2023/01/29 03:34:50;;;;;;;;;74.67;59.67;;;;;;;;5024381;28;45400;-81
2023/01/29 03:37:28;;;;;;;;;74.00;58.67;;;;;;;;5008818;28;45223;-81
2023/01/29 03:39:54;;;;;;;;;77.67;53.33;;;;;;;;5010246;28;45989;-81
2023/01/29 03:42:22;;;;;;;;;71.33;59.67;;;;;;;;5021350;28;45360;-81
2023/01/29 03:45:10;;;;;;;;;74.67;60.00;;;;;;;;5028602;28;45254;-81
2023/01/29 03:47:45;;;;;;;;;74.67;56.33;;;;;;;;5006964;28;46880;-80
2023/01/29 03:50:29;;;;;;;;;82.33;62.33;;;;;;;;5010923;28;45637;-80
2023/01/29 03:52:54;;;;;;;;;73.67;57.33;;;;;;;;5010093;28;45165;-79
2023/01/29 03:55:23;;;;;;;;;77.33;60.67;;;;;;;;5016937;28;45655;-81
2023/01/29 03:58:02;;;;;;;;;74.67;60.67;;;;;;;;5019134;27;45336;-80
2023/01/29 04:00:27;;;;;;;;;66.00;53.33;;;;;;;;5029596;28;45415;-80
2023/01/29 04:03:05;;;;;;;;;83.00;61.33;;;;;;;;5004443;28;45495;-81
2023/01/29 04:05:35;;;;;;;;;73.67;58.33;;;;;;;;5012990;28;45138;-80
2023/01/29 04:08:05;;;;;;;;;73.00;58.00;;;;;;;;5011579;28;45521;-80
2023/01/29 04:10:34;;;;;;;;;77.33;59.67;;;;;;;;5018331;28;45360;-80
2023/01/29 04:13:02;;;;;;;;;77.33;56.00;;;;;;;;5017965;27;45375;-80
2023/01/29 04:15:29;;;;;;;;;75.33;59.00;;;;;;;;5030139;28;45411;-79
2023/01/29 04:17:55;;;;;;;;;74.33;56.00;;;;;;;;5003016;27;46698;-80
2023/01/29 04:20:21;;;;;;;;;78.67;61.00;;;;;;;;5008752;28;47180;-81
2023/01/29 04:22:47;;;;;;;;;85.00;59.33;;;;;;;;5017993;28;45582;-80
2023/01/29 04:25:16;;;;;;;;;76.33;59.00;;;;;;;;5026981;28;45316;-80
2023/01/29 04:27:55;;;;;;;;;82.00;61.00;;;;;;;;5006892;27;45959;-80
2023/01/29 04:30:32;;;;;;;;;77.67;59.33;;;;;;;;5043706;28;47397;-80
2023/01/29 04:33:13;;;;;;;;;77.67;57.67;;;;;;;;5015749;28;45322;-79
2023/01/29 04:36:00;;;;;;;;;80.67;61.67;;;;;;;;4998905;28;45483;-80
2023/01/29 04:38:33;;;;;;;;;80.33;62.00;;;;;;;;5024015;28;45668;-80
2023/01/29 04:41:10;;;;;;;;;78.33;61.33;;;;;;;;5025201;28;45597;-80
2023/01/29 04:43:35;;;;;;;;;72.00;56.67;;;;;;;;5024250;28;45184;-80
2023/01/29 04:46:11;;;;;;;;;80.00;60.33;;;;;;;;5031854;28;45436;-80
2023/01/29 04:49:00;;;;;;;;;79.00;58.00;;;;;;;;5000593;28;46865;-80
2023/01/29 04:51:28;;;;;;;;;78.00;58.00;;;;;;;;5004176;28;45595;-80
2023/01/29 04:53:59;;;;;;;;;66.67;54.33;;;;;;;;5007556;28;45449;-80
2023/01/29 04:56:32;;;;;;;;;74.67;57.67;;;;;;;;5025542;28;45488;-79
2023/01/29 04:59:00;;;;;;;;;74.00;58.67;;;;;;;;5035990;27;46133;-80
2023/01/29 05:01:28;;;;;;;;;78.33;55.00;;;;;;;;5025056;28;45444;-80
2023/01/29 05:03:54;;;;;;;;;68.00;52.33;;;;;;;;5017657;28;45592;-79
2023/01/29 05:06:20;;;;;;;;;70.67;55.33;;;;;;;;5011094;28;45286;-79
2023/01/29 05:08:46;;;;;;;;;72.33;54.67;;;;;;;;5001176;28;46115;-80
2023/01/29 05:11:13;;;;;;;;;75.33;58.67;;;;;;;;5023383;28;45468;-79
2023/01/29 05:13:40;;;;;;;;;65.33;50.00;;;;;;;;5056729;27;45316;-80
2023/01/29 05:16:20;;;;;;;;;67.67;57.33;;;;;;;;5017750;28;45420;-80
2023/01/29 05:18:46;;;;;;;;;67.67;55.00;;;;;;;;5018086;28;45573;-80
2023/01/29 05:21:11;;;;;;;;;72.67;57.67;;;;;;;;5006270;27;46789;-80
2023/01/29 05:23:36;;;;;;;;;75.33;55.00;;;;;;;;5000536;28;45665;-80
2023/01/29 05:26:02;;;;;;;;;72.67;57.33;;;;;;;;4998032;28;45312;-78
2023/01/29 05:28:27;;;;;;;;;69.67;51.67;;;;;;;;5018891;28;45208;-80
2023/01/29 05:30:53;;;;;;;;;74.00;56.33;;;;;;;;5020572;28;45378;-79
2023/01/29 05:33:26;;;;;;;;;73.00;57.67;;;;;;;;5020676;27;45290;-80
2023/01/29 05:35:52;;;;;;;;;72.33;55.67;;;;;;;;5005194;28;45360;-79
2023/01/29 05:38:18;;;;;;;;;75.00;59.00;;;;;;;;5014653;27;45543;-80
2023/01/29 05:40:43;;;;;;;;;78.00;59.67;;;;;;;;5018400;28;45930;-79
2023/01/29 05:43:22;;;;;;;;;68.33;54.33;;;;;;;;5010468;27;45281;-81
2023/01/29 05:45:51;;;;;;;;;77.67;60.33;;;;;;;;5018260;28;45312;-80
2023/01/29 05:48:16;;;;;;;;;66.00;53.33;;;;;;;;5013735;28;45344;-80
2023/01/29 05:50:42;;;;;;;;;70.67;53.00;;;;;;;;5031125;27;46353;-79
2023/01/29 05:53:07;;;;;;;;;76.33;57.67;;;;;;;;5012182;28;45261;-80
2023/01/29 05:55:32;;;;;;;;;68.33;51.33;;;;;;;;5032522;28;45373;-80
2023/01/29 05:57:58;;;;;;;;;75.00;61.00;;;;;;;;5003338;28;46044;-80
2023/01/29 06:00:23;;;;;;;;;85.00;58.67;;;;;;;;5014617;28;45435;-80
2023/01/29 06:02:48;;;;;;;;;75.67;61.00;;;;;;;;5012411;28;45416;-80
2023/01/29 06:05:14;;;;;;;;;79.00;60.67;;;;;;;;5005503;28;45331;-80
2023/01/29 06:07:43;;;;;;;;;76.33;57.00;;;;;;;;5019629;27;47231;-80
2023/01/29 06:10:09;;;;;;;;;74.33;58.00;;;;;;;;4998705;28;47677;-80
2023/01/29 06:12:34;;;;;;;;;72.33;57.67;;;;;;;;4998259;27;45479;-79
2023/01/29 06:15:00;;;;;;;;;72.67;54.67;;;;;;;;5026106;28;45321;-80
2023/01/29 06:17:25;;;;;;;;;64.33;50.67;;;;;;;;5011179;28;45273;-80
2023/01/29 06:19:50;;;;;;;;;76.67;55.67;;;;;;;;5023429;27;45261;-81
2023/01/29 06:22:15;;;;;;;;;68.33;52.33;;;;;;;;5019295;28;45341;-80
2023/01/29 06:24:40;;;;;;;;;74.00;54.67;;;;;;;;5028271;28;44761;-80
2023/01/29 06:27:05;;;;;;;;;68.67;51.67;;;;;;;;5019789;28;45246;-80
2023/01/29 06:29:31;;;;;;;;;74.67;56.33;;;;;;;;5021054;28;46193;-80
2023/01/29 06:31:56;;;;;;;;;69.33;54.33;;;;;;;;5015539;28;45271;-80
2023/01/29 06:34:21;;;;;;;;;75.00;57.00;;;;;;;;5022289;28;45584;-80
2023/01/29 06:36:46;;;;;;;;;71.67;53.67;;;;;;;;5015733;28;45497;-80
2023/01/29 06:39:12;;;;;;;;;76.33;57.33;;;;;;;;4998341;28;46931;-80
2023/01/29 06:41:37;;;;;;;;;73.00;56.00;;;;;;;;5014240;28;45360;-80
2023/01/29 06:44:02;;;;;;;;;76.33;56.00;;;;;;;;5009646;27;45461;-80
2023/01/29 06:46:27;;;;;;;;;64.67;50.33;;;;;;;;5012846;28;45248;-80
2023/01/29 06:48:53;;;;;;;;;72.33;54.33;;;;;;;;5014832;28;45403;-81
2023/01/29 06:51:18;;;;;;;;;67.33;54.00;;;;;;;;4997407;28;45374;-80
2023/01/29 06:53:43;;;;;;;;;45.67;37.67;;;;;;;;5016926;27;45448;-79
2023/01/29 06:56:08;;;;;;;;;78.00;57.00;;;;;;;;5005309;28;46851;-79
2023/01/29 06:58:37;;;;;;;;;71.00;55.67;;;;;;;;5014611;28;45286;-79
2023/01/29 07:01:06;;;;;;;;;65.33;50.33;;;;;;;;5004211;28;45468;-79
2023/01/29 07:03:32;;;;;;;;;62.00;48.67;;;;;;;;5024940;28;45437;-79
2023/01/29 07:05:57;;;;;;;;;66.33;51.33;;;;;;;;5021367;28;45666;-80
2023/01/29 07:08:22;;;;;;;;;63.00;51.00;;;;;;;;5013457;28;45448;-79
2023/01/29 07:10:48;;;;;;;;;70.67;57.67;;;;;;;;5003093;28;45331;-80
2023/01/29 07:13:13;;;;;;;;;65.67;50.33;;;;;;;;4988927;27;45394;-81
2023/01/29 07:15:38;;;;;;;;;71.33;56.33;;;;;;;;5020330;28;45352;-80
2023/01/29 07:18:10;;;;;;;;;68.67;50.33;;;;;;;;5013130;28;45356;-80
2023/01/29 07:20:35;;;;;;;;;71.33;56.00;;;;;;;;5017365;27;45449;-80
2023/01/29 07:23:01;;;;;;;;;61.67;51.33;;;;;;;;5008259;28;45397;-80
2023/01/29 07:25:26;;;;;;;;;73.67;55.00;;;;;;;;5041146;28;47314;-80
2023/01/29 07:27:51;;;;;;;;;71.67;54.33;;;;;;;;5020696;28;46032;-80
2023/01/29 07:30:16;;;;;;;;;75.00;53.00;;;;;;;;5035292;28;45329;-79
2023/01/29 07:32:42;;;;;;;;;71.00;54.33;;;;;;;;5014877;28;45379;-79
2023/01/29 07:35:07;;;;;;;;;70.00;51.33;;;;;;;;5020470;28;45272;-79
2023/01/29 07:37:33;;;;;;;;;67.67;52.67;;;;;;;;5019463;28;45423;-79
2023/01/29 07:39:58;;;;;;;;;67.67;52.00;;;;;;;;5030906;27;45285;-79
2023/01/29 07:42:23;;;;;;;;;60.33;51.00;;;;;;;;5025482;28;45401;-80
2023/01/29 07:44:48;;;;;;;;;67.00;52.00;;;;;;;;5029414;28;45250;-79
2023/01/29 07:47:13;;;;;;;;;78.67;59.00;;;;;;;;5001489;28;48047;-79
2023/01/29 07:49:39;;;;;;;;;78.33;56.33;;;;;;;;5016430;27;45333;-79
2023/01/29 07:52:04;;;;;;;;;72.00;55.33;;;;;;;;5009844;27;45528;-79
2023/01/29 07:54:29;;;;;;;;;73.33;55.00;;;;;;;;5022675;28;45413;-79
2023/01/29 07:56:54;;;;;;;;;78.00;57.00;;;;;;;;5011624;28;45280;-78
2023/01/29 07:59:20;;;;;;;;;74.67;60.00;;;;;;;;5022136;27;45282;-79
2023/01/29 08:01:45;;;;;;;;;70.33;52.00;;;;;;;;5021310;27;45405;-79
2023/01/29 08:04:10;;;;;;;;;74.00;54.67;;;;;;;;5005291;28;45943;-80
2023/01/29 08:06:35;;;;;;;;;77.67;59.00;;;;;;;;5015683;27;46731;-80
2023/01/29 08:09:01;;;;;;;;;79.33;57.00;;;;;;;;5001918;28;45471;-80
2023/01/29 08:11:26;;;;;;;;;73.67;59.67;;;;;;;;5015540;28;45370;-79
2023/01/29 08:13:51;;;;;;;;;77.00;56.67;;;;;;;;5020025;27;45274;-79
2023/01/29 08:16:16;;;;;;;;;88.33;61.67;;;;;;;;5003654;28;46833;-79
2023/01/29 08:18:45;;;;;;;;;80.00;64.00;;;;;;;;5017604;27;45260;-79
2023/01/29 08:21:10;;;;;;;;;81.67;60.33;;;;;;;;5005269;28;44800;-79
2023/01/29 08:23:35;;;;;;;;;73.67;56.00;;;;;;;;5034702;28;46900;-80
2023/01/29 08:26:01;;;;;;;;;69.67;54.33;;;;;;;;5033550;27;46167;-80
2023/01/29 08:28:27;;;;;;;;;77.67;62.00;;;;;;;;5015958;28;45571;-79
2023/01/29 08:30:52;;;;;;;;;80.00;59.67;;;;;;;;5025340;28;45303;-80
2023/01/29 08:33:17;;;;;;;;;71.33;58.33;;;;;;;;5002714;28;47082;-77
2023/01/29 08:35:42;;;;;;;;;79.00;58.67;;;;;;;;5030989;28;45470;-77
2023/01/29 08:38:08;;;;;;;;;76.00;57.33;;;;;;;;5016086;28;45396;-77
2023/01/29 08:40:33;;;;;;;;;78.67;56.00;;;;;;;;5014638;28;45386;-78
2023/01/29 08:42:59;;;;;;;;;71.67;54.67;;;;;;;;5023552;28;45487;-75
2023/01/29 08:45:25;;;;;;;;;75.00;59.67;;;;;;;;5025304;28;45447;-78
2023/01/29 08:47:50;;;;;;;;;76.67;60.33;;;;;;;;5018708;28;45275;-79
2023/01/29 08:50:16;;;;;;;;;81.00;60.67;;;;;;;;5007820;28;45371;-78
2023/01/29 08:52:41;;;;;;;;;80.67;60.00;;;;;;;;5052524;27;46327;-77
2023/01/29 08:55:07;;;;;;;;;72.00;56.33;;;;;;;;5024510;28;45399;-78
2023/01/29 08:57:32;;;;;;;;;74.33;60.33;;;;;;;;5004485;28;45334;-77
2023/01/29 08:59:57;;;;;;;;;78.67;60.00;;;;;;;;5032677;28;45376;-79
2023/01/29 09:02:22;;;;;;;;;81.00;58.67;;;;;;;;5017860;28;45188;-77
2023/01/29 09:04:48;;;;;;;;;82.00;58.33;;;;;;;;5028169;28;45255;-77
2023/01/29 09:07:13;;;;;;;;;83.33;61.33;;;;;;;;5019208;28;45417;-78
2023/01/29 09:09:39;;;;;;;;;64.67;55.33;;;;;;;;5049235;27;45270;-76
2023/01/29 09:12:04;;;;;;;;;81.33;62.67;;;;;;;;5035080;27;46334;-81
2023/01/29 09:14:29;;;;;;;;;78.67;59.00;;;;;;;;5023419;28;45473;-80
2023/01/29 09:16:56;;;;;;;;;69.67;54.33;;;;;;;;5015256;28;44702;-81
2023/01/29 09:19:22;;;;;;;;;63.67;52.00;;;;;;;;5013960;27;45971;-79
2023/01/29 09:21:48;;;;;;;;;72.00;53.67;;;;;;;;5003584;28;45560;-79
2023/01/29 09:24:13;;;;;;;;;72.00;53.33;;;;;;;;5030405;28;45488;-79
2023/01/29 09:26:39;;;;;;;;;67.67;49.00;;;;;;;;5023973;28;45206;-81
2023/01/29 09:29:04;;;;;;;;;66.00;49.00;;;;;;;;5014453;28;45675;-80
2023/01/29 09:31:29;;;;;;;;;70.33;51.00;;;;;;;;5017761;28;45265;-79
2023/01/29 09:33:54;;;;;;;;;54.00;38.00;;;;;;;;5017834;28;45370;-81
2023/01/29 09:36:21;;;;;;;;;77.00;53.33;;;;;;;;5005957;28;45326;-79
2023/01/29 09:38:46;;;;;;;;;67.33;53.67;;;;;;;;5008403;28;45316;-79
2023/01/29 09:41:23;;;;;;;;;67.67;53.67;;;;;;;;5028444;28;45430;-78
2023/01/29 09:43:52;;;;;;;;;66.00;51.00;;;;;;;;5008949;28;45377;-78
2023/01/29 09:46:40;;;;;;;;;68.00;52.33;;;;;;;;5032605;28;45784;-77
2023/01/29 09:49:19;;;;;;;;;63.67;52.00;;;;;;;;5016453;28;46572;-77
2023/01/29 09:51:50;;;;;;;;;64.33;53.00;;;;;;;;5022055;28;44725;-79
2023/01/29 09:54:21;;;;;;;;;70.00;54.00;;;;;;;;5025787;28;46356;-78
2023/01/29 09:56:49;;;;;;;;;77.00;60.00;;;;;;;;5016259;28;45289;-77
2023/01/29 09:59:22;;;;;;;;;66.00;52.00;;;;;;;;5024978;28;45296;-78
2023/01/29 10:02:06;;;;;;;;;67.33;51.00;;;;;;;;5018249;27;46306;-78
2023/01/29 10:04:34;;;;;;;;;64.67;50.33;;;;;;;;5009408;28;46997;-78
2023/01/29 10:06:59;;;;;;;;;62.00;51.33;;;;;;;;5002399;28;45388;-79
2023/01/29 10:09:24;;;;;;;;;67.67;52.00;;;;;;;;5021551;27;45485;-79
2023/01/29 10:12:08;;;;;;;;;68.33;53.00;;;;;;;;5019785;27;45485;-78
2023/01/29 10:14:36;;;;;;;;;60.33;49.33;;;;;;;;5018039;28;46287;-77
2023/01/29 10:17:08;;;;;;;;;66.33;49.67;;;;;;;;5017888;28;45456;-79
2023/01/29 10:19:47;;;;;;;;;62.33;51.33;;;;;;;;5018332;28;45842;-78
2023/01/29 10:22:38;;;;;;;;;64.33;51.67;;;;;;;;5006368;27;45451;-79
2023/01/29 10:25:05;;;;;;;;;62.33;49.67;;;;;;;;5025097;27;47077;-78
2023/01/29 10:27:37;;;;;;;;;65.00;51.33;;;;;;;;5019812;28;45307;-79
2023/01/29 10:30:05;;;;;;;;;68.67;54.33;;;;;;;;5005523;28;45734;-80
2023/01/29 10:32:31;;;;;;;;;68.33;52.00;;;;;;;;5021279;27;45496;-79
2023/01/29 10:34:59;;;;;;;;;63.00;49.33;;;;;;;;5005677;28;47437;-78
2023/01/29 10:37:33;;;;;;;;;62.25;49.00;;;;;;;;5022096;28;45228;-78
2023/01/29 10:39:59;;;;;;;;;48.75;41.75;;;;;;;;5018324;28;45460;-78
2023/01/29 10:42:37;;;;;;;;;59.50;46.25;;;;;;;;5008341;28;45995;-76
2023/01/29 10:45:12;;;;;;;;;63.25;50.25;;;;;;;;5023604;27;45426;-77
2023/01/29 10:47:55;;;;;;;;;59.75;47.50;;;;;;;;5021719;28;45238;-77
2023/01/29 10:50:31;;;;;;;;;66.00;54.00;;;;;;;;5019620;28;45279;-78
2023/01/29 10:53:14;;;;;;;;;65.00;50.00;;;;;;;;5021633;28;45436;-76
2023/01/29 10:55:50;;;;;;;;;55.00;44.25;;;;;;;;5003298;28;45401;-78
2023/01/29 10:58:15;;;;;;;;;64.00;47.50;;;;;;;;5026147;28;45233;-79
2023/01/29 11:00:41;;;;;;;;;77.33;57.67;;;;;;;;5016476;28;45146;-76
2023/01/29 11:03:12;;;;;;;;;66.50;45.75;;;;;;;;5027952;28;45265;-76
2023/01/29 11:06:03;;;;;;;;;55.25;41.00;;;;;;;;5024758;28;46108;-77
2023/01/29 11:08:36;;;;;;;;;62.50;48.50;;;;;;;;5029788;28;45459;-80
2023/01/29 11:11:01;;;;;;;;;72.00;52.75;;;;;;;;5007552;28;45451;-78
2023/01/29 11:13:30;;;;;;;;;58.00;46.75;;;;;;;;5020449;27;45261;-78
2023/01/29 11:15:55;;;;;;;;;54.75;46.00;;;;;;;;5015390;28;46485;-79
2023/01/29 11:18:20;;;;;;;;;64.25;47.75;;;;;;;;5020718;28;45337;-80
2023/01/29 11:20:58;;;;;;;;;65.00;47.75;;;;;;;;5013665;28;45462;-80
2023/01/29 11:23:27;;;;;;;;;53.75;43.50;;;;;;;;5031381;28;46087;-78
2023/01/29 11:25:54;;;;;;;;;60.25;44.75;;;;;;;;4991421;28;47168;-80
2023/01/29 11:28:39;;;;;;;;;60.50;49.00;;;;;;;;5022769;28;45434;-77
2023/01/29 11:31:16;;;;;;;;;59.75;48.25;;;;;;;;5017149;28;45377;-79
2023/01/29 11:33:42;;;;;;;;;55.25;43.25;;;;;;;;5031090;28;45381;-78
2023/01/29 11:36:21;;;;;;;;;59.00;44.25;;;;;;;;4996601;28;47007;-80
2023/01/29 11:38:46;;;;;;;;;56.75;43.50;;;;;;;;5036970;28;46127;-79
2023/01/29 11:41:21;;;;;;;;;62.25;43.75;;;;;;;;5018911;28;47065;-79
2023/01/29 11:43:46;;;;;;;;;55.00;41.75;;;;;;;;4990592;28;45592;-78
2023/01/29 11:46:12;;;;;;;;;55.00;43.75;;;;;;;;5018562;28;46635;-80
2023/01/29 11:48:43;;;;;;;;;54.25;40.00;;;;;;;;5022737;28;45373;-77
2023/01/29 11:51:10;;;;;;;;;58.00;44.25;;;;;;;;5017247;27;45397;-78
2023/01/29 11:53:41;;;;;;;;;37.00;36.50;;;;;;;;5011880;28;45490;-78
2023/01/29 11:56:26;;;;;;;;;44.75;38.50;;;;;;;;5016108;27;45224;-77
2023/01/29 11:58:54;;;;;;;;;43.75;39.00;;;;;;;;5016830;28;46229;-78
2023/01/29 12:01:27;;;;;;;;;44.75;39.75;;;;;;;;5009785;27;45402;-79
2023/01/29 12:03:52;;;;;;;;;50.75;41.00;;;;;;;;5015220;28;45518;-79
2023/01/29 12:06:22;;;;;;;;;51.00;40.00;;;;;;;;5000728;28;46771;-77
2023/01/29 12:08:56;;;;;;;;;50.75;40.00;;;;;;;;5022151;28;45743;-76
2023/01/29 12:11:29;;;;;;;;;48.25;40.25;;;;;;;;5014153;28;45254;-78
2023/01/29 12:13:56;;;;;;;;;53.00;42.00;;;;;;;;5015619;27;45496;-80
2023/01/29 12:16:24;;;;;;;;;59.00;46.00;;;;;;;;5015761;28;46338;-78
2023/01/29 12:18:52;;;;;;;;;55.00;42.50;;;;;;;;5014660;28;45512;-78
2023/01/29 12:21:34;;;;;;;;;39.50;33.00;;;;;;;;5014325;28;45397;-82
2023/01/29 12:24:05;;;;;;;;;48.00;37.00;;;;;;;;5006356;28;45462;-80
2023/01/29 12:26:50;;;;;;;;;53.00;40.00;;;;;;;;5018469;28;46531;-77
2023/01/29 12:29:34;;;;;;;;;37.50;33.75;;;;;;;;4996367;28;45430;-78
2023/01/29 12:32:08;;;;;;;;;24.75;21.00;;;;;;;;5003970;28;44798;-76
2023/01/29 12:34:45;;;;;;;;;45.25;39.25;;;;;;;;5017985;28;44817;-78
2023/01/29 12:37:13;;;;;;;;;31.00;29.25;;;;;;;;5023675;28;45339;-80
2023/01/29 12:39:39;;;;;;;;;33.50;30.50;;;;;;;;5018924;28;45500;-81
2023/01/29 12:42:09;;;;;;;;;22.00;19.00;;;;;;;;5042690;27;45286;-80
2023/01/29 12:44:42;;;;;;;;;12.00;7.75;;;;;;;;5019032;28;45372;-78
2023/01/29 12:47:13;;;;;;;;;16.25;13.25;;;;;;;;5028846;28;45282;-77
2023/01/29 12:49:39;;;;;;;;;12.50;9.25;;;;;;;;5018194;28;45538;-78
2023/01/29 12:52:16;;;;;;;;;18.50;16.25;;;;;;;;5033332;28;45371;-78
2023/01/29 12:54:47;;;;;;;;;13.25;13.25;;;;;;;;5024981;28;45400;-79
2023/01/29 12:57:19;;;;;;;;;26.25;19.50;;;;;;;;5024482;28;45588;-79
2023/01/29 12:59:51;;;;;;;;;18.50;17.25;;;;;;;;5007404;28;44832;-78
2023/01/29 13:02:22;;;;;;;;;18.00;16.25;;;;;;;;5026477;28;45470;-78
2023/01/29 13:04:54;;;;;;;;;23.25;17.75;;;;;;;;5017636;28;45617;-78
2023/01/29 13:07:24;;;;;;;;;14.00;12.50;;;;;;;;5025577;28;45403;-79
2023/01/29 13:09:53;;;;;;;;;12.75;12.75;;;;;;;;5004610;28;45401;-80
2023/01/29 13:12:20;;;;;;;;;17.50;14.00;;;;;;;;5014210;27;45482;-81
2023/01/29 13:14:52;;;;;;;;;51.75;41.50;;;;;;;;5027878;28;46180;-81
2023/01/29 13:17:17;;;;;;;;;31.75;27.25;;;;;;;;5016277;28;45404;-76
2023/01/29 13:19:44;;;;;;;;;10.25;9.00;;;;;;;;5026431;28;45329;-79
2023/01/29 13:22:27;;;;;;;;;15.25;12.50;;;;;;;;5028450;28;45335;-78
2023/01/29 13:24:52;;;;;;;;;17.50;17.50;;;;;;;;5006967;28;45614;-81
2023/01/29 13:27:29;;;;;;;;;37.00;32.75;;;;;;;;5016939;28;45213;-80
2023/01/29 13:29:54;;;;;;;;;18.75;17.50;;;;;;;;5020469;28;45280;-80
2023/01/29 13:32:24;;;;;;;;;23.25;17.50;;;;;;;;5001678;28;45295;-78
2023/01/29 13:34:51;;;;;;;;;24.25;20.00;;;;;;;;5020481;28;45370;-79
2023/01/29 13:37:20;;;;;;;;;18.25;12.50;;;;;;;;5014925;28;47377;-79
2023/01/29 13:39:47;;;;;;;;;13.75;13.75;;;;;;;;5006388;28;45536;-80
2023/01/29 13:42:20;;;;;;;;;19.00;16.75;;;;;;;;5012660;27;45294;-79
2023/01/29 13:44:47;;;;;;;;;13.00;12.75;;;;;;;;5019526;28;45529;-78
2023/01/29 13:47:20;;;;;;;;;17.25;15.50;;;;;;;;5038314;28;47109;-79
2023/01/29 13:49:52;;;;;;;;;15.75;15.75;;;;;;;;5024996;28;45569;-78
2023/01/29 13:52:26;;;;;;;;;16.50;13.00;;;;;;;;5027277;28;45454;-79
2023/01/29 13:55:11;;;;;;;;;14.75;12.50;;;;;;;;5011620;28;45595;-78
2023/01/29 13:57:47;;;;;;;;;18.00;15.25;;;;;;;;5013340;27;47047;-79
2023/01/29 14:00:21;;;;;;;;;17.00;15.25;;;;;;;;5008876;28;45304;-81
2023/01/29 14:02:55;;;;;;;;;13.75;12.00;;;;;;;;5025175;28;44822;-79
2023/01/29 14:05:29;;;;;;;;;19.75;17.75;;;;;;;;5001727;28;46265;-79
2023/01/29 14:08:13;;;;;;;;;23.25;17.25;;;;;;;;5016423;28;45610;-79
2023/01/29 14:10:39;;;;;;;;;15.75;14.25;;;;;;;;5001588;28;45373;-79
2023/01/29 14:13:10;;;;;;;;;21.25;17.75;;;;;;;;5055372;27;45364;-78
2023/01/29 14:15:36;;;;;;;;;42.25;33.25;;;;;;;;5011283;28;45310;-79
2023/01/29 14:18:03;;;;;;;;;18.00;17.25;;;;;;;;5022467;28;45305;-78
2023/01/29 14:20:34;;;;;;;;;73.50;54.75;;;;;;;;5010174;28;45482;-79
2023/01/29 14:23:02;;;;;;;;;48.75;39.00;;;;;;;;5028312;28;45284;-80
2023/01/29 14:25:33;;;;;;;;;13.00;13.00;;;;;;;;5004310;28;45917;-81
2023/01/29 14:28:00;;;;;;;;;9.25;7.75;;;;;;;;5011722;28;46853;-80
2023/01/29 14:30:27;;;;;;;;;13.50;13.00;;;;;;;;5012306;28;45436;-80
2023/01/29 14:32:53;;;;;;;;;17.00;13.75;;;;;;;;5025438;28;45309;-76
2023/01/29 14:35:26;;;;;;;;;15.00;13.00;;;;;;;;5014450;28;45758;-80
2023/01/29 14:37:53;;;;;;;;;17.75;15.00;;;;;;;;5025640;28;45426;-79
2023/01/29 14:40:18;;;;;;;;;14.50;14.50;;;;;;;;5025135;28;45437;-79
2023/01/29 14:43:03;;;;;;;;;23.75;20.50;;;;;;;;5009014;27;45550;-80
2023/01/29 14:45:32;;;;;;;;;23.75;20.50;;;;;;;;5022132;28;45375;-81
2023/01/29 14:47:59;;;;;;;;;31.75;25.75;;;;;;;;5016913;27;47658;-80
2023/01/29 14:50:27;;;;;;;;;24.50;23.00;;;;;;;;5020746;28;45539;-80
2023/01/29 14:52:53;;;;;;;;;28.00;22.75;;;;;;;;5020658;28;46402;-80
2023/01/29 14:55:36;;;;;;;;;26.75;24.50;;;;;;;;5015118;27;45553;-81